Time;durP1;ratioP1;P1;durP2;ratioP2;P2;SDS_P1;SDS_P2;PMS_P1;PMS_P2;Temp;Humidity;BMP_temperature;BMP_pressure;BME280_temperature;BME280_humidity;BME280_pressure;Samples;Min_cycle;Max_cycle;Signal;HPM_P1;HPM_P2
2023/02/15 00:01:22;;;;;;;63.00;41.40;;;2.00;99.90;;;;;;4930218;29;20286;-81
2023/02/15 00:03:49;;;;;;;61.00;39.63;;;2.00;99.90;;;;;;4931870;29;20202;-81
2023/02/15 00:06:18;;;;;;;64.07;42.17;;;1.90;99.90;;;;;;4929746;29;20289;-81
2023/02/15 00:08:46;;;;;;;61.77;42.37;;;1.90;99.90;;;;;;4930832;29;20508;-79
2023/02/15 00:11:15;;;;;;;58.63;37.73;;;1.80;99.90;;;;;;4931589;29;20293;-80
2023/02/15 00:13:42;;;;;;;55.13;37.50;;;1.80;99.90;;;;;;4931763;29;20233;-80
2023/02/15 00:16:11;;;;;;;60.43;38.53;;;1.80;99.90;;;;;;4930439;29;20622;-80
2023/02/15 00:18:39;;;;;;;52.70;35.30;;;1.80;99.90;;;;;;4917243;29;20206;-80
2023/02/15 00:21:08;;;;;;;52.63;36.67;;;1.70;99.90;;;;;;4914640;29;20518;-80
2023/02/15 00:23:37;;;;;;;55.00;35.77;;;1.80;99.90;;;;;;4914780;29;20293;-80
2023/02/15 00:26:05;;;;;;;49.30;34.23;;;1.70;99.90;;;;;;4914775;29;20725;-79
2023/02/15 00:28:32;;;;;;;54.40;35.83;;;1.70;99.90;;;;;;4917832;29;20222;-78
2023/02/15 00:31:04;;;;;;;50.30;34.37;;;1.70;99.90;;;;;;4918543;29;20305;-80
2023/02/15 00:33:31;;;;;;;51.30;34.70;;;1.70;99.90;;;;;;4918247;29;20690;-80
2023/02/15 00:35:58;;;;;;;52.93;34.80;;;1.70;99.90;;;;;;4918046;29;20730;-81
2023/02/15 00:38:26;;;;;;;49.67;34.63;;;1.70;99.90;;;;;;4918491;29;20207;-81
2023/02/15 00:40:55;;;;;;;50.80;33.40;;;1.60;99.90;;;;;;4917739;29;20211;-78
2023/02/15 00:43:22;;;;;;;49.40;32.73;;;1.60;99.90;;;;;;4917965;29;20305;-78
2023/02/15 00:45:49;;;;;;;49.53;33.53;;;1.60;99.90;;;;;;4918325;29;20219;-79
2023/02/15 00:48:16;;;;;;;54.20;35.53;;;1.60;99.90;;;;;;4918144;29;20592;-80
2023/02/15 00:50:46;;;;;;;56.10;36.73;;;1.70;99.90;;;;;;4917406;29;20207;-79
2023/02/15 00:53:13;;;;;;;57.13;38.67;;;1.70;99.90;;;;;;4918052;29;20298;-79
2023/02/15 00:55:40;;;;;;;61.47;37.80;;;1.70;99.90;;;;;;4918176;29;20286;-79
2023/02/15 00:58:09;;;;;;;58.80;37.73;;;1.70;99.90;;;;;;4917535;29;20655;-80
2023/02/15 01:00:36;;;;;;;58.97;37.77;;;1.70;99.90;;;;;;4917996;29;20209;-80
2023/02/15 01:03:04;;;;;;;60.80;38.53;;;1.70;99.90;;;;;;4917500;29;20212;-80
2023/02/15 01:05:32;;;;;;;58.53;37.13;;;1.80;99.90;;;;;;4917544;29;20298;-80
2023/02/15 01:07:59;;;;;;;59.50;37.37;;;1.80;99.90;;;;;;4917889;29;20246;-80
2023/02/15 01:10:26;;;;;;;54.60;35.77;;;1.80;99.90;;;;;;4917190;29;20292;-81
2023/02/15 01:12:54;;;;;;;54.23;36.17;;;1.80;99.90;;;;;;4917880;29;20203;-79
2023/02/15 01:15:23;;;;;;;60.40;35.60;;;1.80;99.90;;;;;;4916860;29;20217;-79
2023/02/15 01:17:52;;;;;;;57.77;36.40;;;1.80;99.90;;;;;;4916879;29;20282;-79
2023/02/15 01:20:20;;;;;;;62.23;36.77;;;1.70;99.90;;;;;;4924876;29;20225;-79
2023/02/15 01:22:49;;;;;;;53.47;33.43;;;1.80;99.90;;;;;;4935121;29;20202;-78
2023/02/15 01:25:16;;;;;;;58.63;36.00;;;1.70;99.90;;;;;;4916573;29;20254;-78
2023/02/15 01:27:43;;;;;;;50.90;33.00;;;1.70;99.90;;;;;;4917002;29;20230;-79
2023/02/15 01:30:11;;;;;;;49.53;33.17;;;1.70;99.90;;;;;;4916793;29;20513;-79
2023/02/15 01:32:40;;;;;;;44.27;29.67;;;1.70;99.90;;;;;;4916958;29;20686;-79
2023/02/15 01:35:07;;;;;;;43.73;29.43;;;1.60;99.90;;;;;;4917219;29;20221;-77
2023/02/15 01:37:35;;;;;;;49.17;32.00;;;1.60;99.90;;;;;;4917156;29;20203;-78
2023/02/15 01:40:02;;;;;;;46.97;32.93;;;1.60;99.90;;;;;;4916509;29;20213;-80
2023/02/15 01:42:30;;;;;;;55.63;35.10;;;1.50;99.90;;;;;;4916590;29;20482;-79
2023/02/15 01:44:58;;;;;;;52.33;33.00;;;1.50;99.90;;;;;;4917632;29;20293;-80
2023/02/15 01:47:33;;;;;;;49.83;33.13;;;1.50;99.90;;;;;;4916486;29;20219;-79
2023/02/15 01:50:09;;;;;;;62.37;40.43;;;1.50;99.90;;;;;;4916642;29;20272;-78
2023/02/15 01:52:40;;;;;;;52.80;35.00;;;1.40;99.90;;;;;;4927782;29;20611;-77
2023/02/15 01:55:08;;;;;;;53.13;33.97;;;1.40;99.90;;;;;;4935879;29;20471;-77
2023/02/15 01:57:36;;;;;;;50.97;33.50;;;1.40;99.90;;;;;;4918368;29;20234;-78
2023/02/15 02:00:05;;;;;;;46.73;32.10;;;1.30;99.90;;;;;;4916086;29;20285;-78
2023/02/15 02:02:32;;;;;;;52.63;32.73;;;1.30;99.90;;;;;;4916825;29;20207;-79
2023/02/15 02:05:06;;;;;;;45.60;30.27;;;1.30;99.90;;;;;;4917037;29;20297;-79
2023/02/15 02:07:36;;;;;;;47.13;30.63;;;1.30;99.90;;;;;;4916355;29;20219;-79
2023/02/15 02:10:04;;;;;;;39.33;28.90;;;1.20;99.90;;;;;;4916625;29;20315;-78
2023/02/15 02:12:31;;;;;;;46.00;30.40;;;1.20;99.90;;;;;;4916331;29;20531;-79
2023/02/15 02:15:00;;;;;;;43.40;28.63;;;1.20;99.90;;;;;;4916151;29;20596;-78
2023/02/15 02:17:43;;;;;;;43.30;31.13;;;1.20;99.90;;;;;;4916682;29;20463;-79
2023/02/15 02:20:55;;;;;;;37.60;26.87;;;1.20;99.90;;;;;;4916442;29;20219;-78
2023/02/15 02:23:36;;;;;;;41.10;27.03;;;1.20;99.90;;;;;;4848024;29;20208;-80
2023/02/15 02:26:36;;;;;;;40.17;27.07;;;1.10;99.90;;;;;;4913857;29;20298;-79
2023/02/15 02:29:49;;;;;;;40.63;27.37;;;1.10;99.90;;;;;;4916220;29;20268;-79
2023/02/15 02:32:51;;;;;;;40.77;27.33;;;1.10;99.90;;;;;;4915887;29;20229;-79
2023/02/15 02:35:25;;;;;;;41.00;26.93;;;1.10;99.90;;;;;;4893405;29;20206;-78
2023/02/15 02:38:00;;;;;;;44.70;30.33;;;1.20;99.90;;;;;;4916527;29;20587;-80
2023/02/15 02:40:36;;;;;;;41.07;28.27;;;1.20;99.90;;;;;;4915588;29;20293;-78
2023/02/15 02:43:08;;;;;;;39.43;26.57;;;1.20;99.90;;;;;;4916229;29;20213;-78
2023/02/15 02:45:41;;;;;;;43.00;28.07;;;1.20;99.90;;;;;;4916130;29;20223;-79
2023/02/15 02:48:14;;;;;;;41.93;27.80;;;1.20;99.90;;;;;;4916193;29;20312;-79
2023/02/15 02:50:42;;;;;;;40.17;27.37;;;1.20;99.90;;;;;;4915882;29;20286;-79
2023/02/15 02:53:10;;;;;;;45.07;30.33;;;1.20;99.90;;;;;;4915828;29;20290;-79
2023/02/15 02:55:42;;;;;;;41.77;28.50;;;1.20;99.90;;;;;;4916338;29;20225;-78
2023/02/15 02:58:14;;;;;;;45.67;29.70;;;1.20;99.90;;;;;;4915933;29;20262;-79
2023/02/15 03:00:44;;;;;;;38.53;28.33;;;1.20;99.90;;;;;;4916350;29;20290;-79
2023/02/15 03:03:16;;;;;;;32.07;25.17;;;1.30;99.90;;;;;;4915683;29;20293;-79
2023/02/15 03:05:47;;;;;;;30.20;23.70;;;1.40;99.90;;;;;;4916317;29;20206;-79
2023/02/15 03:08:21;;;;;;;30.53;23.20;;;1.40;99.90;;;;;;4915982;29;20233;-79
2023/02/15 03:10:49;;;;;;;27.67;22.23;;;1.40;99.90;;;;;;4915776;29;20194;-79
2023/02/15 03:13:17;;;;;;;27.80;22.50;;;1.40;99.90;;;;;;4915305;29;20206;-81
2023/02/15 03:18:37;;;;;;;26.47;21.47;;;1.50;99.90;;;;;;4915322;29;20194;-78
2023/02/15 03:21:08;;;;;;;27.97;22.87;;;1.40;99.90;;;;;;4915445;29;20201;-78
2023/02/15 03:23:36;;;;;;;28.13;22.73;;;1.50;99.90;;;;;;4916360;29;20279;-79
2023/02/15 03:26:07;;;;;;;26.83;21.00;;;1.40;99.90;;;;;;4915307;29;20202;-79
2023/02/15 03:28:39;;;;;;;27.93;21.57;;;1.40;99.90;;;;;;4915220;29;20314;-79
2023/02/15 03:31:09;;;;;;;32.17;23.33;;;1.50;99.90;;;;;;4915225;29;20828;-78
2023/02/15 03:33:41;;;;;;;28.17;22.03;;;1.40;99.90;;;;;;4916513;29;20313;-78
2023/02/15 03:36:18;;;;;;;29.57;22.43;;;1.40;99.90;;;;;;4915522;29;20289;-78
2023/02/15 03:38:52;;;;;;;32.07;22.77;;;1.40;99.90;;;;;;4915576;29;20562;-80
2023/02/15 03:41:23;;;;;;;32.33;24.07;;;1.40;99.90;;;;;;4915641;29;20203;-80
2023/02/15 03:43:55;;;;;;;30.50;24.03;;;1.50;99.90;;;;;;4915574;29;20604;-81
2023/02/15 03:46:27;;;;;;;34.47;26.27;;;1.50;99.90;;;;;;4915366;29;20556;-79
2023/02/15 03:48:58;;;;;;;31.70;23.17;;;1.50;99.90;;;;;;4915599;29;20587;-80
2023/02/15 03:51:37;;;;;;;29.67;23.27;;;1.50;99.90;;;;;;4924740;29;20210;-80
2023/02/15 03:54:08;;;;;;;30.13;22.40;;;1.50;99.90;;;;;;4934634;29;20220;-80
2023/02/15 03:56:36;;;;;;;28.27;21.87;;;1.40;99.90;;;;;;4915269;29;20246;-79
2023/02/15 04:01:59;;;;;;;30.03;23.13;;;1.40;99.90;;;;;;4916641;29;20197;-80
2023/02/15 04:04:31;;;;;;;28.73;22.40;;;1.30;99.90;;;;;;4919064;29;20709;-79
2023/02/15 04:07:00;;;;;;;26.40;20.20;;;1.30;99.90;;;;;;4919460;29;20202;-80
2023/02/15 04:12:11;;;;;;;25.80;21.13;;;1.20;99.90;;;;;;4919105;29;20214;-79
2023/02/15 04:17:22;;;;;;;24.13;19.90;;;1.20;99.90;;;;;;4919071;29;20205;-80
2023/02/15 04:25:19;;;;;;;27.07;19.97;;;1.10;99.90;;;;;;4919072;29;20198;-79
2023/02/15 04:27:48;;;;;;;27.93;20.53;;;1.10;99.90;;;;;;4926201;29;20635;-80
2023/02/15 04:30:18;;;;;;;24.53;20.50;;;1.10;99.90;;;;;;4937584;29;20201;-78
2023/02/15 04:32:45;;;;;;;27.90;21.60;;;1.00;99.90;;;;;;4937766;29;20209;-79
2023/02/15 04:35:12;;;;;;;28.60;20.90;;;1.00;99.90;;;;;;4937185;29;20659;-78
2023/02/15 04:37:41;;;;;;;26.33;21.77;;;1.00;99.90;;;;;;4924726;29;20217;-78
2023/02/15 04:40:11;;;;;;;26.63;22.03;;;1.00;99.90;;;;;;4918142;29;20205;-79
2023/02/15 04:42:38;;;;;;;29.83;22.43;;;0.90;99.90;;;;;;4917970;29;20205;-78
2023/02/15 04:45:06;;;;;;;28.97;21.60;;;0.90;99.90;;;;;;4917704;29;20206;-78
2023/02/15 04:47:33;;;;;;;30.97;23.27;;;0.90;99.90;;;;;;4918103;29;20316;-79
2023/02/15 04:50:00;;;;;;;29.90;23.50;;;0.90;99.90;;;;;;4917499;29;20262;-79
2023/02/15 04:52:27;;;;;;;30.90;23.70;;;0.90;99.90;;;;;;4918452;29;20242;-78
2023/02/15 04:54:55;;;;;;;31.27;23.67;;;0.90;99.90;;;;;;4933808;29;20205;-79
2023/02/15 04:57:22;;;;;;;30.50;22.63;;;0.90;99.90;;;;;;4927168;29;20273;-78
2023/02/15 04:59:49;;;;;;;30.03;23.50;;;0.90;99.90;;;;;;4917838;29;20229;-78
2023/02/15 05:02:16;;;;;;;31.83;24.07;;;0.80;99.90;;;;;;4917635;29;20686;-78
2023/02/15 05:04:43;;;;;;;34.53;24.57;;;0.90;99.90;;;;;;4917459;29;20661;-79
2023/02/15 05:07:10;;;;;;;33.27;24.57;;;0.90;99.90;;;;;;4917381;29;20289;-77
2023/02/15 05:09:36;;;;;;;35.73;25.00;;;0.80;99.90;;;;;;4917086;29;20428;-79
2023/02/15 05:12:05;;;;;;;35.80;25.93;;;0.80;99.90;;;;;;4917593;29;20648;-79
2023/02/15 05:14:32;;;;;;;34.10;26.13;;;0.80;99.90;;;;;;4923158;29;20226;-78
2023/02/15 05:17:01;;;;;;;38.00;26.67;;;0.80;99.90;;;;;;4936322;29;20530;-79
2023/02/15 05:19:28;;;;;;;34.90;25.93;;;0.80;99.90;;;;;;4936752;29;20198;-79
2023/02/15 05:21:55;;;;;;;40.70;29.23;;;0.80;99.90;;;;;;4936536;29;20206;-79
2023/02/15 05:29:53;;;;;;;42.70;28.43;;;0.80;99.90;;;;;;4917271;29;20241;-77
2023/02/15 05:32:20;;;;;;;39.50;27.67;;;0.80;99.90;;;;;;4917111;29;20305;-79
2023/02/15 05:34:46;;;;;;;40.97;27.00;;;0.80;99.90;;;;;;4917293;29;20258;-79
2023/02/15 05:37:13;;;;;;;40.83;27.20;;;0.80;99.90;;;;;;4917530;29;20235;-79
2023/02/15 05:39:40;;;;;;;36.37;26.53;;;0.80;99.90;;;;;;4917128;29;20290;-79
2023/02/15 05:42:08;;;;;;;39.97;27.67;;;0.80;99.90;;;;;;4917359;29;20199;-79
2023/02/15 05:44:35;;;;;;;48.37;30.60;;;0.80;99.90;;;;;;4916519;29;20695;-79
2023/02/15 05:47:02;;;;;;;47.33;30.10;;;0.80;99.90;;;;;;4916481;29;20198;-80
2023/02/15 05:49:31;;;;;;;49.17;31.17;;;0.80;99.90;;;;;;4931704;29;20529;-79
2023/02/15 05:51:58;;;;;;;42.27;28.40;;;0.80;99.90;;;;;;4916922;29;20826;-79
2023/02/15 05:54:25;;;;;;;42.87;29.80;;;0.80;99.90;;;;;;4929533;29;20233;-79
2023/02/15 05:56:51;;;;;;;47.13;31.57;;;0.80;99.90;;;;;;4935786;29;20252;-79
2023/02/15 05:59:20;;;;;;;44.23;29.43;;;0.90;99.90;;;;;;4935607;29;20202;-80
2023/02/15 06:01:47;;;;;;;44.20;29.07;;;0.80;99.90;;;;;;4935728;29;20289;-80
2023/02/15 06:04:14;;;;;;;46.23;30.10;;;0.90;99.90;;;;;;4921800;29;20301;-78
2023/02/15 06:06:41;;;;;;;46.10;30.00;;;0.90;99.90;;;;;;4916623;29;20260;-77
2023/02/15 06:09:07;;;;;;;46.43;29.87;;;0.90;99.90;;;;;;4917099;29;20325;-77
2023/02/15 06:11:35;;;;;;;44.07;29.83;;;0.90;99.90;;;;;;4917063;29;20306;-79
2023/02/15 06:14:02;;;;;;;49.40;31.80;;;0.90;99.90;;;;;;4916375;29;20297;-79
2023/02/15 06:16:30;;;;;;;54.60;32.17;;;0.90;99.90;;;;;;4916709;29;20205;-79
2023/02/15 06:18:58;;;;;;;52.90;31.17;;;0.90;99.90;;;;;;4916831;29;20207;-78
2023/02/15 06:21:25;;;;;;;48.43;30.83;;;0.90;99.90;;;;;;4916149;29;20237;-81
2023/02/15 06:23:52;;;;;;;52.07;33.50;;;0.90;99.90;;;;;;4915892;29;20228;-78
2023/02/15 06:26:19;;;;;;;55.07;34.40;;;0.90;99.90;;;;;;4916513;29;20230;-77
2023/02/15 06:28:46;;;;;;;48.50;30.73;;;0.90;99.90;;;;;;4916234;29;20222;-76
2023/02/15 06:31:13;;;;;;;53.23;33.40;;;0.90;99.90;;;;;;4916395;29;20294;-77
2023/02/15 06:33:41;;;;;;;52.13;31.97;;;1.00;99.90;;;;;;4916833;29;20223;-77
2023/02/15 06:36:08;;;;;;;55.70;32.77;;;1.00;99.90;;;;;;4915785;29;20225;-78
2023/02/15 06:38:35;;;;;;;52.13;31.50;;;1.00;99.90;;;;;;4916215;29;20780;-77
2023/02/15 06:41:02;;;;;;;58.73;33.93;;;1.00;99.90;;;;;;4915993;29;20262;-77
2023/02/15 06:43:29;;;;;;;51.93;33.17;;;1.10;99.90;;;;;;4916414;29;20286;-77
2023/02/15 06:45:56;;;;;;;60.83;32.10;;;1.10;99.90;;;;;;4915766;29;20651;-77
2023/02/15 06:48:23;;;;;;;53.37;33.47;;;1.10;99.90;;;;;;4915467;29;20202;-78
2023/02/15 06:50:51;;;;;;;55.03;33.17;;;1.10;99.90;;;;;;4916103;29;20290;-77
2023/02/15 06:53:18;;;;;;;54.67;35.23;;;1.20;99.90;;;;;;4915908;29;20301;-77
2023/02/15 06:55:45;;;;;;;58.97;34.70;;;1.20;99.90;;;;;;4915311;29;20203;-77
2023/02/15 06:58:12;;;;;;;60.50;35.03;;;1.40;99.90;;;;;;4915674;29;20330;-76
2023/02/15 07:00:39;;;;;;;61.80;35.40;;;1.60;99.90;;;;;;4916169;29;20796;-76
2023/02/15 07:03:05;;;;;;;63.10;37.87;;;1.80;99.90;;;;;;4915618;29;20603;-76
2023/02/15 07:05:35;;;;;;;71.53;38.20;;;2.00;99.90;;;;;;4915468;29;20203;-76
2023/02/15 07:08:03;;;;;;;59.43;36.93;;;2.10;99.90;;;;;;4916306;29;20529;-77
2023/02/15 07:10:30;;;;;;;57.00;35.23;;;2.10;99.90;;;;;;4915468;29;20726;-77
2023/02/15 07:12:56;;;;;;;57.97;35.70;;;2.10;99.90;;;;;;4915640;29;20241;-76
2023/02/15 07:15:24;;;;;;;59.83;35.00;;;2.20;99.90;;;;;;4931181;29;20735;-78
2023/02/15 07:17:51;;;;;;;55.50;34.50;;;2.10;99.90;;;;;;4934426;29;20240;-78
2023/02/15 07:20:20;;;;;;;58.57;34.77;;;2.10;99.90;;;;;;4934527;29;20690;-77
2023/02/15 07:22:47;;;;;;;61.47;35.40;;;2.10;99.90;;;;;;4934025;29;20201;-76
2023/02/15 07:25:15;;;;;;;60.33;36.93;;;2.10;99.90;;;;;;4914924;29;20218;-78
2023/02/15 07:27:43;;;;;;;59.83;33.90;;;2.10;99.90;;;;;;4915645;29;20218;-79
2023/02/15 07:30:13;;;;;;;58.03;36.97;;;2.20;99.90;;;;;;4915112;29;20230;-79
2023/02/15 07:33:22;;;;;;;62.33;36.00;;;2.20;99.90;;;;;;4915177;29;20237;-79
2023/02/15 07:35:27;;;;;;;62.23;34.50;;;2.20;99.90;;;;;;4915218;29;20206;-79
2023/02/15 07:37:54;;;;;;;59.13;35.37;;;2.20;99.90;;;;;;4918910;29;20293;-80
2023/02/15 07:40:25;;;;;;;61.03;35.67;;;2.30;99.90;;;;;;4919093;29;20206;-81
2023/02/15 07:42:54;;;;;;;61.07;36.60;;;2.30;99.90;;;;;;4919628;29;20222;-80
2023/02/15 07:45:21;;;;;;;59.63;35.40;;;2.30;99.90;;;;;;4919012;29;20825;-80
2023/02/15 07:47:48;;;;;;;62.67;34.90;;;2.30;99.90;;;;;;4919175;29;20277;-80
2023/02/15 07:50:15;;;;;;;59.83;34.03;;;2.30;99.90;;;;;;4918677;29;20309;-80
2023/02/15 07:52:42;;;;;;;62.80;35.63;;;2.40;99.90;;;;;;4918915;29;20217;-79
2023/02/15 07:55:12;;;;;;;58.03;35.97;;;2.40;99.90;;;;;;4918958;29;20202;-80
2023/02/15 07:57:43;;;;;;;66.67;38.83;;;2.50;99.90;;;;;;4918871;29;20345;-78
2023/02/15 08:00:12;;;;;;;69.07;39.90;;;2.50;99.90;;;;;;4918179;29;20198;-80
2023/02/15 08:02:39;;;;;;;70.67;39.80;;;2.60;99.90;;;;;;4918751;29;20215;-78
2023/02/15 08:05:07;;;;;;;74.90;43.67;;;2.70;99.90;;;;;;4918813;29;20238;-78
2023/02/15 08:07:34;;;;;;;76.80;42.63;;;2.90;99.90;;;;;;4918199;29;20211;-80
2023/02/15 08:10:01;;;;;;;78.20;44.33;;;2.90;99.90;;;;;;4918843;29;20240;-79
2023/02/15 08:12:28;;;;;;;83.50;45.87;;;3.00;99.90;;;;;;4933781;29;20241;-78
2023/02/15 08:14:56;;;;;;;70.07;43.23;;;3.20;99.90;;;;;;4937408;29;20194;-79
2023/02/15 08:17:23;;;;;;;80.67;45.30;;;3.30;99.90;;;;;;4936693;29;20218;-78
2023/02/15 08:19:50;;;;;;;71.33;41.17;;;3.30;99.90;;;;;;4918744;29;20205;-78
2023/02/15 08:22:17;;;;;;;79.90;45.37;;;3.30;99.90;;;;;;4918602;29;20816;-80
2023/02/15 08:24:43;;;;;;;82.20;46.73;;;3.40;99.90;;;;;;4916333;29;20646;-78
2023/02/15 08:27:12;;;;;;;84.10;45.80;;;3.50;99.90;;;;;;4885991;29;20206;-78
2023/02/15 08:29:41;;;;;;;84.87;45.80;;;3.50;99.90;;;;;;4935730;29;20230;-78
2023/02/15 08:32:12;;;;;;;75.90;44.83;;;3.60;99.90;;;;;;4931870;29;20514;-79
2023/02/15 08:34:41;;;;;;;83.03;46.90;;;3.60;99.90;;;;;;4933936;29;20701;-77
2023/02/15 08:37:09;;;;;;;80.80;46.70;;;3.70;99.90;;;;;;4930061;29;20217;-77
2023/02/15 08:39:36;;;;;;;88.30;49.30;;;3.80;99.90;;;;;;4936720;29;20206;-77
2023/02/15 08:42:03;;;;;;;86.27;49.17;;;3.90;99.90;;;;;;4931859;29;20256;-78
2023/02/15 08:44:30;;;;;;;94.03;50.33;;;4.00;99.90;;;;;;4932258;29;20619;-78
2023/02/15 08:47:02;;;;;;;92.80;50.30;;;4.00;99.90;;;;;;4936572;29;20237;-80
2023/02/15 08:49:31;;;;;;;92.90;52.33;;;4.10;99.90;;;;;;4931267;29;20569;-78
2023/02/15 08:51:58;;;;;;;85.07;51.03;;;4.10;99.90;;;;;;4934466;29;20280;-79
2023/02/15 08:54:25;;;;;;;93.40;51.40;;;4.20;99.90;;;;;;4929380;29;20611;-79
2023/02/15 08:56:52;;;;;;;90.07;50.53;;;4.20;99.90;;;;;;4934289;29;20321;-80
2023/02/15 08:59:23;;;;;;;89.00;50.70;;;4.30;99.90;;;;;;4936097;29;20222;-80
2023/02/15 09:01:52;;;;;;;89.83;49.90;;;4.30;99.90;;;;;;4936263;29;20194;-79
2023/02/15 09:04:19;;;;;;;94.73;52.10;;;4.30;99.90;;;;;;4933374;29;20250;-80
2023/02/15 09:06:49;;;;;;;90.60;50.20;;;4.40;99.90;;;;;;4936771;29;20478;-80
2023/02/15 09:09:17;;;;;;;96.03;53.03;;;4.50;99.90;;;;;;4934968;29;20559;-82
2023/02/15 09:11:46;;;;;;;89.10;50.30;;;4.60;99.90;;;;;;4937708;29;20292;-79
2023/02/15 09:14:15;;;;;;;88.77;51.90;;;4.60;99.90;;;;;;4936002;29;20230;-80
2023/02/15 09:16:46;;;;;;;91.97;51.33;;;4.70;99.90;;;;;;4936194;29;20699;-78
2023/02/15 09:19:13;;;;;;;92.87;51.23;;;4.70;99.90;;;;;;4936363;29;20191;-82
2023/02/15 09:21:40;;;;;;;81.93;49.47;;;4.80;99.90;;;;;;4923785;29;20675;-79
2023/02/15 09:24:11;;;;;;;88.80;51.67;;;4.80;99.90;;;;;;4917485;29;20282;-80
2023/02/15 09:26:40;;;;;;;85.47;50.37;;;4.90;99.90;;;;;;4917792;29;20294;-80
2023/02/15 09:29:08;;;;;;;88.73;49.43;;;4.90;99.90;;;;;;4917686;29;20226;-80
2023/02/15 09:31:39;;;;;;;81.43;49.53;;;5.00;99.90;;;;;;4916685;29;20622;-80
2023/02/15 09:34:05;;;;;;;82.17;48.50;;;5.10;99.90;;;;;;4917438;29;20229;-78
2023/02/15 09:36:34;;;;;;;90.10;51.83;;;5.20;99.90;;;;;;4917327;29;20217;-80
2023/02/15 09:39:07;;;;;;;87.83;50.57;;;5.30;99.90;;;;;;4917250;29;20866;-78
2023/02/15 09:42:32;;;;;;;85.33;52.23;;;5.40;99.90;;;;;;4916862;29;20321;-78
2023/02/15 09:45:24;;;;;;;86.20;51.20;;;5.40;99.90;;;;;;4916281;29;20209;-79
2023/02/15 09:48:21;;;;;;;85.13;51.37;;;5.60;99.90;;;;;;4916773;29;20281;-79
2023/02/15 09:51:01;;;;;;;96.47;55.60;;;5.60;99.90;;;;;;4916970;29;20287;-79
2023/02/15 09:53:45;;;;;;;89.97;55.90;;;5.70;99.90;;;;;;4916861;29;20237;-79
2023/02/15 09:56:20;;;;;;;95.53;53.60;;;5.80;99.90;;;;;;4916659;29;20229;-78
2023/02/15 09:58:58;;;;;;;93.93;55.27;;;5.90;99.90;;;;;;4916021;29;20234;-78
2023/02/15 10:01:36;;;;;;;100.07;57.90;;;6.00;99.90;;;;;;4916608;29;20496;-78
2023/02/15 10:04:18;;;;;;;92.77;55.60;;;6.10;99.90;;;;;;4916118;29;20515;-79
2023/02/15 10:07:01;;;;;;;96.20;57.70;;;6.20;99.90;;;;;;4915822;29;20207;-79
2023/02/15 10:09:40;;;;;;;84.90;52.07;;;6.30;99.90;;;;;;4916417;29;20210;-78
2023/02/15 10:12:21;;;;;;;92.23;55.10;;;6.40;99.90;;;;;;4914775;29;20203;-80
2023/02/15 10:15:14;;;;;;;88.43;53.80;;;6.50;99.90;;;;;;4925436;29;20570;-81
2023/02/15 10:17:55;;;;;;;86.30;54.33;;;6.60;99.90;;;;;;4931980;29;20190;-79
2023/02/15 10:20:34;;;;;;;83.80;53.77;;;6.70;99.90;;;;;;4929201;29;20220;-78
2023/02/15 10:23:17;;;;;;;93.67;55.87;;;6.80;99.90;;;;;;4935026;29;20262;-84
2023/02/15 10:25:52;;;;;;;95.30;56.13;;;6.90;99.90;;;;;;4922332;29;20410;-79
2023/02/15 10:28:21;;;;;;;89.93;53.07;;;7.00;99.90;;;;;;4918298;29;20290;-78
2023/02/15 10:30:50;;;;;;;87.30;56.40;;;7.00;99.90;;;;;;4935576;29;20258;-80
2023/02/15 10:33:39;;;;;;;77.57;52.17;;;7.10;99.90;;;;;;4927883;29;20226;-79
2023/02/15 10:36:24;;;;;;;82.30;51.50;;;7.20;99.90;;;;;;4934031;29;20222;-81
2023/02/15 10:38:58;;;;;;;72.37;49.67;;;7.30;99.90;;;;;;4934903;29;20616;-80
2023/02/15 10:41:38;;;;;;;78.43;50.77;;;7.40;99.90;;;;;;4933157;29;20216;-80
2023/02/15 10:44:35;;;;;;;76.03;48.30;;;7.50;99.90;;;;;;4933783;29;20194;-79
2023/02/15 10:47:27;;;;;;;74.10;45.53;;;7.60;99.90;;;;;;4927635;29;20209;-82
2023/02/15 10:50:17;;;;;;;74.63;45.87;;;7.70;99.90;;;;;;4932101;29;20698;-80
2023/02/15 10:52:59;;;;;;;71.23;44.70;;;7.80;99.90;;;;;;4934321;29;20205;-81
2023/02/15 10:55:41;;;;;;;66.13;42.37;;;7.90;99.90;;;;;;4929868;29;20301;-81
2023/02/15 10:58:15;;;;;;;61.13;40.27;;;8.00;99.90;;;;;;4934177;29;20725;-79
2023/02/15 11:00:46;;;;;;;61.37;42.77;;;8.10;99.90;;;;;;4935383;29;20533;-81
2023/02/15 11:03:27;;;;;;;61.80;40.77;;;8.10;99.90;;;;;;4934582;29;20285;-80
2023/02/15 11:06:03;;;;;;;60.23;39.93;;;8.20;99.90;;;;;;4925626;29;20619;-82
2023/02/15 11:08:35;;;;;;;58.03;38.37;;;8.30;99.90;;;;;;4915186;29;20242;-79
2023/02/15 11:11:06;;;;;;;58.47;38.40;;;8.40;99.90;;;;;;4914511;29;20246;-78
2023/02/15 11:13:39;;;;;;;60.27;38.30;;;8.50;99.90;;;;;;4915707;29;20207;-77
2023/02/15 11:16:11;;;;;;;57.93;36.50;;;8.60;99.90;;;;;;4914903;29;20294;-78
2023/02/15 11:18:42;;;;;;;58.90;37.50;;;8.70;99.90;;;;;;4915614;29;20187;-78
2023/02/15 11:21:18;;;;;;;62.73;39.27;;;8.70;99.90;;;;;;4915352;29;20671;-77
2023/02/15 11:23:47;;;;;;;53.73;35.80;;;8.80;99.90;;;;;;4915089;29;20214;-78
2023/02/15 11:26:18;;;;;;;50.77;36.20;;;8.80;99.90;;;;;;4915373;29;20289;-77
2023/02/15 11:28:50;;;;;;;55.97;37.37;;;8.90;99.90;;;;;;4915567;29;20211;-79
2023/02/15 11:31:20;;;;;;;61.33;37.10;;;9.00;99.90;;;;;;4914239;29;20511;-78
2023/02/15 11:33:52;;;;;;;52.83;35.80;;;9.10;99.90;;;;;;4915424;29;20223;-78
2023/02/15 11:36:23;;;;;;;54.77;36.90;;;9.20;99.90;;;;;;4915120;29;20202;-77
2023/02/15 11:38:55;;;;;;;46.57;34.33;;;9.30;99.90;;;;;;4915483;29;20261;-78
2023/02/15 11:41:28;;;;;;;56.50;34.70;;;9.40;99.90;;;;;;4914888;29;20225;-77
2023/02/15 11:44:00;;;;;;;52.07;34.50;;;9.60;99.90;;;;;;4926444;29;20206;-77
2023/02/15 11:46:28;;;;;;;48.67;34.63;;;9.70;99.90;;;;;;4921135;29;20214;-78
2023/02/15 11:48:55;;;;;;;47.33;34.07;;;9.80;99.90;;;;;;4917126;29;20211;-78
2023/02/15 11:51:24;;;;;;;52.23;34.30;;;9.90;99.90;;;;;;4927635;29;20258;-81
2023/02/15 11:53:51;;;;;;;48.93;32.67;;;10.00;99.90;;;;;;4928112;29;20285;-80
2023/02/15 11:56:22;;;;;;;44.60;31.63;;;10.00;99.90;;;;;;4915334;29;20505;-79
2023/02/15 11:58:55;;;;;;;44.90;30.77;;;10.10;99.90;;;;;;4914345;29;20237;-80
2023/02/15 12:01:28;;;;;;;49.23;32.77;;;10.10;99.90;;;;;;4915942;29;20203;-81
2023/02/15 12:03:58;;;;;;;43.70;30.90;;;10.20;99.90;;;;;;4928090;29;20195;-80
2023/02/15 12:06:29;;;;;;;44.73;31.10;;;10.20;99.90;;;;;;4922337;29;20201;-81
2023/02/15 12:09:02;;;;;;;47.67;31.80;;;10.20;99.90;;;;;;4914780;29;20302;-81
2023/02/15 12:11:34;;;;;;;45.80;30.50;;;10.40;99.90;;;;;;4914761;29;20309;-78
2023/02/15 12:14:03;;;;;;;43.90;30.87;;;10.40;99.90;;;;;;4915296;29;20203;-79
2023/02/15 12:16:35;;;;;;;49.00;31.70;;;10.50;99.90;;;;;;4915381;29;20195;-80
2023/02/15 12:19:03;;;;;;;46.60;31.80;;;10.60;99.90;;;;;;4919473;29;20202;-81
2023/02/15 12:21:34;;;;;;;45.70;32.57;;;10.70;99.90;;;;;;4925514;29;20296;-82
2023/02/15 12:24:10;;;;;;;47.93;32.60;;;10.80;99.90;;;;;;4924916;29;20237;-82
2023/02/15 12:26:38;;;;;;;41.33;29.97;;;10.90;99.90;;;;;;4932179;29;20512;-82
2023/02/15 12:29:16;;;;;;;48.43;31.37;;;11.00;99.90;;;;;;4923366;29;20281;-81
2023/02/15 12:31:46;;;;;;;41.00;28.53;;;11.10;99.90;;;;;;4927702;29;20230;-82
2023/02/15 12:34:17;;;;;;;43.40;29.87;;;11.20;99.90;;;;;;4921327;29;20524;-82
2023/02/15 12:36:50;;;;;;;46.37;30.47;;;11.20;99.90;;;;;;4931107;29;20202;-80
2023/02/15 12:39:21;;;;;;;46.13;29.70;;;11.30;99.90;;;;;;4920367;29;20221;-81
2023/02/15 12:42:00;;;;;;;44.27;30.43;;;11.30;99.90;;;;;;4918130;29;20194;-81
2023/02/15 12:44:28;;;;;;;44.10;29.50;;;11.40;99.90;;;;;;4914810;29;20666;-77
2023/02/15 12:47:00;;;;;;;48.67;33.73;;;11.50;99.90;;;;;;4923919;29;20215;-79
2023/02/15 12:49:28;;;;;;;45.77;31.50;;;11.60;99.90;;;;;;4933968;29;20236;-79
2023/02/15 12:51:59;;;;;;;49.33;31.80;;;11.70;99.90;;;;;;4934423;29;20312;-77
2023/02/15 12:54:40;;;;;;;47.70;34.07;;;11.70;99.90;;;;;;4921794;29;20203;-77
2023/02/15 12:57:26;;;;;;;46.30;31.70;;;11.80;99.90;;;;;;4914907;29;20245;-78
2023/02/15 12:59:55;;;;;;;46.30;31.97;;;11.80;99.90;;;;;;4926948;29;20203;-77
2023/02/15 13:02:26;;;;;;;43.40;30.83;;;11.80;99.90;;;;;;4927789;29;20209;-75
2023/02/15 13:04:55;;;;;;;43.30;30.30;;;11.80;99.90;;;;;;4937124;29;20497;-76
2023/02/15 13:07:26;;;;;;;48.53;32.93;;;11.80;99.90;;;;;;4918206;29;20202;-75
2023/02/15 13:09:53;;;;;;;47.13;30.93;;;11.80;99.90;;;;;;4917734;29;20191;-76
2023/02/15 13:12:23;;;;;;;44.80;30.57;;;11.70;99.90;;;;;;4917764;29;20254;-76
2023/02/15 13:14:52;;;;;;;39.97;29.17;;;11.70;99.90;;;;;;4917559;29;20650;-76
2023/02/15 13:17:24;;;;;;;42.70;29.90;;;11.80;99.90;;;;;;4917640;29;20211;-76